Ruby, AK (99768)

12:22 PM AKST on February 17, 2018 (GMT -0900)
Ruby | | Change Station
Active Advisory: Winter Weather Advisory

Elev 653 ft 64.73 °N, 155.47 °W | Updated 5 minutes ago

Mostly Cloudy
Mostly Cloudy
16 °F
Feels Like 7 °F
N
6
Wind Variable Wind from ENE

Today
High -- | Low -- °F
--% Chance of Precip.
Yesterday
High -- | Low -- °F
Precip. -- in
Pressure 30.67 in
Visibility 0.2 miles
Clouds Overcast 300 ft
Windchill 7 °F
Dew Point 14 °F
Humidity 93%
Rainfall 0.00 in
Snow Depth Not available.
9:13 AM 6:05 PM
Waxing Crescent, 4% visible
SPECI PARY 172117Z AUTO 07005KT 1/4SM FZFG OVC003 M09/M10 A3067 RMK AO2 FZRANO
Pressure 30.67 in
Visibility 0.2 miles
Clouds Overcast 300 ft
Windchill 7 °F
Dew Point 14 °F
Humidity 93%
Rainfall 0.00 in
Snow Depth Not available.
9:13 AM 6:05 PM
Waxing Crescent, 4% visible
SPECI PARY 172117Z AUTO 07005KT 1/4SM FZFG OVC003 M09/M10 A3067 RMK AO2 FZRANO

Get Your Daily Forecast Email!

Thanks for signing up!

Be on the lookout for a verification email in your inbox.

You'll start receiving severe weather alerts in your inbox..

×

10-Day Weather Forecast

Almanac

Astronomy

Feb. 17, 2018 Rise Set
Actual Time
Civil Twilight
Nautical Twilight
Astronomical Twilight
Moon
Length of Visible Light
Length of Day
Tomorrow will be .
, % of the Moon is Illuminated

Today's Extremes

State Highs State Lows

Community

WunderPhotos

Category 6

Welcome to Category 6. This is the collective home for Weather Underground's featured writeups by Dr. Jeff Masters (right), Bob Henson (left), Chris Burt, and other regular contributors.

Nearby

Air Quality

  Air Quality AQ Index Pollutant
Not available.

Snow Depth

Station Depth Elevation

Earthquake Activity

City Distance Mag. Time & Date
Minimum magnitude displayed is 2.5.

Coastal Water Temperatures

Place Temperature

Stations

Nearby Weather Stations

Station Location Temp. Windchill Dew Point Humidity Wind Precip. Elev Updated Type
                   

Watches & Warnings

Winter Weather Advisory
Issued: 5:32 AM AKST Feb. 17, 2018 – National Weather Service

... Winter Weather Advisory in effect from 9 am to 9 PM akst
Sunday...

* what... snow, and freezing rain expected. Plan on slippery Road
conditions. Total snow accumulations of 4 inches are expected,
with ice accumulation of less than one tenth of an inch.

* Where... lower Koyukuk and middle Yukon valleys.

* When... 9 am to 9 PM Sunday.

* Additional details... winds gusting as high as 25 mph will
cause areas of blowing and drifting snow.

Precautionary/preparedness actions...

A Winter Weather Advisory for snow and blowing snow means periods
of snow and blowing snow will cause travel difficulties.